createdAt,value
2022-09-02T00:01:16.867Z,3.58
2022-09-02T00:03:43.790Z,3.85
2022-09-02T00:06:10.606Z,3.92
2022-09-02T00:08:37.488Z,3.05
2022-09-02T00:11:04.439Z,2.80
2022-09-02T00:13:31.505Z,4.47
2022-09-02T00:15:58.165Z,1.90
2022-09-02T00:18:24.894Z,3.30
2022-09-02T00:20:51.658Z,2.88
2022-09-02T00:23:18.544Z,2.22
2022-09-02T00:25:45.346Z,3.95
2022-09-02T00:28:13.079Z,3.00
2022-09-02T00:30:40.326Z,5.50
2022-09-02T00:33:07.379Z,3.17
2022-09-02T00:35:34.095Z,5.88
2022-09-02T00:38:00.773Z,2.92
2022-09-02T00:40:27.928Z,3.78
2022-09-02T00:42:54.671Z,4.93
2022-09-02T00:45:21.619Z,5.05
2022-09-02T00:47:48.325Z,3.45
2022-09-02T00:50:16.470Z,2.75
2022-09-02T00:52:46.617Z,4.50
2022-09-02T00:55:14.760Z,6.25
2022-09-02T00:57:50.830Z,7.28
2022-09-02T01:00:22.809Z,3.28
2022-09-02T01:02:55.000Z,3.05
2022-09-02T01:05:22.757Z,4.63
2022-09-02T01:07:49.556Z,3.35
2022-09-02T01:10:19.115Z,4.97
2022-09-02T01:12:45.779Z,5.50
2022-09-02T01:15:12.680Z,4.13
2022-09-02T01:17:43.735Z,4.10
2022-09-02T01:20:12.470Z,4.85
2022-09-02T01:22:39.884Z,4.10
2022-09-02T01:25:12.146Z,5.47
2022-09-02T01:27:38.833Z,4.00
2022-09-02T01:30:06.651Z,4.25
2022-09-02T01:32:33.361Z,5.18
2022-09-02T01:35:00.049Z,4.97
2022-09-02T01:37:26.750Z,6.15
2022-09-02T01:39:53.404Z,3.40
2022-09-02T01:42:20.411Z,7.45
2022-09-02T01:44:47.079Z,6.22
2022-09-02T01:47:14.868Z,4.72
2022-09-02T01:49:41.626Z,4.88
2022-09-02T01:52:08.771Z,6.63
2022-09-02T01:54:35.511Z,5.28
2022-09-02T01:57:02.163Z,5.50
2022-09-02T01:59:28.843Z,8.75
2022-09-02T02:01:55.535Z,6.40
2022-09-02T02:04:22.256Z,5.65
2022-09-02T02:06:53.550Z,6.60
2022-09-02T02:09:21.478Z,5.03
2022-09-02T02:11:48.277Z,9.82
2022-09-02T02:14:15.001Z,9.00
2022-09-02T02:16:41.733Z,6.22
2022-09-02T02:19:08.412Z,7.88
2022-09-02T02:21:37.081Z,7.57
2022-09-02T02:24:04.050Z,5.78
2022-09-02T02:26:30.758Z,8.15
2022-09-02T02:28:57.608Z,8.05
2022-09-02T02:31:24.355Z,8.75
2022-09-02T02:33:51.201Z,7.93
2022-09-02T02:36:18.076Z,7.25
2022-09-02T02:38:44.850Z,9.02
2022-09-02T02:41:11.665Z,6.15
2022-09-02T02:43:38.387Z,6.30
2022-09-02T02:46:05.247Z,7.20
2022-09-02T02:48:32.664Z,7.13
2022-09-02T02:50:59.303Z,9.55
2022-09-02T02:53:25.962Z,11.10
2022-09-02T02:55:52.708Z,11.25
2022-09-02T02:58:19.402Z,9.32
2022-09-02T03:00:46.056Z,8.13
2022-09-02T03:03:13.148Z,8.23
2022-09-02T03:05:40.562Z,7.75
2022-09-02T03:08:08.811Z,9.38
2022-09-02T03:10:35.664Z,9.70
2022-09-02T03:13:02.622Z,7.45
2022-09-02T03:15:29.453Z,9.15
2022-09-02T03:17:56.308Z,6.47
2022-09-02T03:20:23.340Z,9.40
2022-09-02T03:22:50.194Z,9.85
2022-09-02T03:25:18.658Z,6.60
2022-09-02T03:27:45.306Z,9.50
2022-09-02T03:30:14.453Z,8.70
2022-09-02T03:32:41.360Z,10.10
2022-09-02T03:35:09.938Z,8.15
2022-09-02T03:37:36.716Z,10.73
2022-09-02T03:40:08.177Z,8.77
2022-09-02T03:42:34.926Z,8.40
2022-09-02T03:45:01.672Z,8.00
2022-09-02T03:47:30.088Z,7.38
2022-09-02T03:49:56.837Z,9.70
2022-09-02T03:52:23.907Z,8.38
2022-09-02T03:54:50.752Z,7.47
2022-09-02T03:57:17.800Z,9.27
2022-09-02T03:59:45.106Z,6.22
2022-09-02T04:02:11.892Z,5.78
2022-09-02T04:04:38.818Z,11.18
2022-09-02T04:07:05.471Z,11.35
2022-09-02T04:09:32.149Z,8.23
2022-09-02T04:11:58.803Z,6.55
2022-09-02T04:14:25.489Z,10.23
2022-09-02T04:16:52.184Z,7.93
2022-09-02T04:19:18.825Z,6.93
2022-09-02T04:21:45.523Z,7.47
2022-09-02T04:24:12.197Z,9.65
2022-09-02T04:26:38.964Z,9.50
2022-09-02T04:29:12.172Z,6.90
2022-09-02T04:31:38.851Z,12.35
2022-09-02T04:34:06.066Z,6.93
2022-09-02T04:36:32.776Z,9.88
2022-09-02T04:38:59.639Z,7.28
2022-09-02T04:41:28.604Z,9.93
2022-09-02T04:43:55.962Z,11.20
2022-09-02T04:46:26.391Z,8.68
2022-09-02T04:49:01.127Z,9.60
2022-09-02T04:51:27.774Z,8.95
2022-09-02T04:53:54.652Z,12.75
2022-09-02T04:56:23.471Z,11.95
2022-09-02T04:58:50.213Z,9.75
2022-09-02T05:01:18.739Z,7.40
2022-09-02T05:03:45.638Z,10.40
2022-09-02T05:06:13.931Z,11.25
2022-09-02T05:08:56.985Z,9.30
2022-09-02T05:11:24.681Z,10.48
2022-09-02T05:13:51.351Z,9.10
2022-09-02T05:16:19.358Z,8.48
2022-09-02T05:18:46.329Z,9.05
2022-09-02T05:21:13.060Z,12.05
2022-09-02T05:23:39.958Z,7.80
2022-09-02T05:26:06.970Z,9.77
2022-09-02T05:28:33.905Z,7.68
2022-09-02T05:31:08.701Z,12.43
2022-09-02T05:33:35.540Z,8.02
2022-09-02T05:36:02.868Z,7.63
2022-09-02T05:38:29.674Z,9.82
2022-09-02T05:40:56.392Z,10.35
2022-09-02T05:43:23.368Z,10.57
2022-09-02T05:45:50.099Z,9.93
2022-09-02T05:48:16.761Z,9.35
2022-09-02T05:50:43.432Z,6.63
2022-09-02T05:53:16.921Z,9.93
2022-09-02T05:55:43.583Z,7.35
2022-09-02T05:58:10.251Z,17.60
2022-09-02T06:00:37.982Z,9.80
2022-09-02T06:03:04.707Z,10.93
2022-09-02T06:05:31.425Z,9.75
2022-09-02T06:07:58.114Z,11.02
2022-09-02T06:10:27.424Z,10.13
2022-09-02T06:15:20.818Z,10.25
2022-09-02T06:17:47.470Z,9.07
2022-09-02T06:20:14.480Z,11.40
2022-09-02T06:22:41.325Z,10.13
2022-09-02T06:25:08.092Z,11.30
2022-09-02T06:27:34.886Z,10.05
2022-09-02T06:30:01.665Z,10.30
2022-09-02T06:32:28.406Z,12.98
2022-09-02T06:34:55.202Z,10.82
2022-09-02T06:37:21.975Z,20.10
2022-09-02T06:39:50.294Z,12.45
2022-09-02T06:42:17.569Z,12.13
2022-09-02T06:44:45.805Z,11.60
2022-09-02T06:47:12.539Z,11.50
2022-09-02T06:49:39.649Z,11.90
2022-09-02T06:52:06.395Z,11.80
2022-09-02T06:54:33.055Z,7.97
2022-09-02T06:56:59.739Z,10.40
2022-09-02T06:59:26.500Z,10.65
2022-09-02T07:01:53.488Z,11.95
2022-09-02T07:04:20.398Z,8.80
2022-09-02T07:06:49.435Z,10.35
2022-09-02T07:09:18.023Z,13.50
2022-09-02T07:11:45.021Z,10.70
2022-09-02T07:14:11.728Z,17.65
2022-09-02T07:16:42.295Z,10.38
2022-09-02T07:19:14.068Z,11.02
2022-09-02T07:21:42.979Z,10.73
2022-09-02T07:24:10.615Z,15.18
2022-09-02T07:26:37.303Z,15.57
2022-09-02T07:29:04.894Z,11.05
2022-09-02T07:31:31.600Z,15.43
2022-09-02T07:33:58.287Z,10.98
2022-09-02T07:36:26.140Z,13.82
2022-09-02T07:38:52.922Z,15.48
2022-09-02T07:41:19.990Z,12.30
2022-09-02T07:43:49.684Z,9.35
2022-09-02T07:46:18.398Z,14.60
2022-09-02T07:48:45.132Z,11.98
2022-09-02T07:51:11.899Z,12.40
2022-09-02T07:53:38.572Z,11.18
2022-09-02T07:56:05.351Z,13.18
2022-09-02T07:58:32.409Z,10.27
2022-09-02T08:00:59.361Z,11.18
2022-09-02T08:03:26.531Z,11.13
2022-09-02T08:05:53.342Z,11.02
2022-09-02T08:08:20.365Z,9.20
2022-09-02T08:10:49.137Z,9.77
2022-09-02T08:13:16.251Z,11.77
2022-09-02T08:15:42.909Z,14.70
2022-09-02T08:18:14.496Z,15.70
2022-09-02T08:20:49.191Z,8.45
2022-09-02T08:23:25.603Z,14.93
2022-09-02T08:26:02.894Z,9.18
2022-09-02T08:28:29.936Z,9.13
2022-09-02T08:30:56.621Z,10.77
2022-09-02T08:33:23.476Z,11.15
2022-09-02T08:35:51.295Z,10.90
2022-09-02T08:38:18.127Z,11.38
2022-09-02T08:40:44.879Z,9.32
2022-09-02T08:43:24.670Z,7.03
2022-09-02T08:45:51.656Z,9.15
2022-09-02T08:48:33.020Z,7.70
2022-09-02T08:51:03.636Z,9.38
2022-09-02T08:53:40.904Z,8.98
2022-09-02T08:56:10.529Z,7.90
2022-09-02T08:58:43.029Z,8.23
2022-09-02T09:01:22.000Z,9.32
2022-09-02T09:03:51.877Z,6.47
2022-09-02T09:06:51.271Z,5.97
2022-09-02T09:09:21.086Z,7.65
2022-09-02T09:11:50.483Z,8.48
2022-09-02T09:14:22.115Z,5.55
2022-09-02T09:16:56.982Z,7.15
2022-09-02T09:19:49.083Z,5.70
2022-09-02T09:22:18.445Z,4.57
2022-09-02T09:24:48.886Z,6.78
2022-09-02T09:27:20.220Z,6.55
2022-09-02T09:29:50.148Z,9.00
2022-09-02T09:32:40.669Z,6.93
2022-09-02T09:35:09.944Z,7.45
2022-09-02T09:37:47.392Z,6.53
2022-09-02T09:40:20.029Z,8.05
2022-09-02T09:43:14.516Z,4.75
2022-09-02T09:45:48.681Z,7.85
2022-09-02T09:48:20.613Z,8.55
2022-09-02T09:50:50.424Z,8.02
2022-09-02T09:53:29.975Z,8.38
2022-09-02T09:56:06.732Z,7.28
2022-09-02T09:58:44.001Z,5.10
2022-09-02T10:01:37.366Z,7.28
2022-09-02T10:04:32.266Z,4.53
2022-09-02T10:06:55.399Z,7.50
2022-09-02T10:09:45.093Z,7.10
2022-09-02T10:12:12.404Z,7.68
2022-09-02T10:14:42.130Z,5.72
2022-09-02T10:17:15.802Z,5.75
2022-09-02T10:19:56.386Z,3.67
2022-09-02T10:22:48.636Z,2.95
2022-09-02T10:28:10.431Z,7.85
2022-09-02T10:31:18.983Z,5.93
2022-09-02T10:33:51.812Z,4.20
2022-09-02T10:36:40.616Z,8.00
2022-09-02T10:39:25.433Z,3.28
2022-09-02T10:41:52.079Z,4.97
2022-09-02T10:44:40.487Z,3.60
2022-09-02T10:47:11.535Z,2.58
2022-09-02T10:50:00.519Z,4.57
2022-09-02T10:52:32.877Z,2.22
2022-09-02T10:55:17.067Z,3.85
2022-09-02T10:58:01.021Z,3.22
2022-09-02T11:00:28.234Z,1.90
2022-09-02T11:03:06.072Z,3.53
2022-09-02T11:05:52.201Z,3.53
2022-09-02T11:08:23.498Z,3.80
2022-09-02T11:11:00.343Z,4.18
2022-09-02T11:13:36.006Z,3.50
2022-09-02T11:16:07.552Z,4.63
2022-09-02T11:19:07.835Z,1.95
2022-09-02T11:21:40.707Z,5.88
2022-09-02T11:24:14.665Z,2.03
2022-09-02T11:27:08.713Z,3.72
2022-09-02T11:30:01.101Z,3.38
2022-09-02T11:32:49.777Z,3.88
2022-09-02T11:35:35.957Z,3.20
2022-09-02T11:38:06.086Z,4.47
2022-09-02T11:40:44.747Z,3.15
2022-09-02T11:43:26.809Z,3.75
2022-09-02T11:46:16.212Z,5.50
2022-09-02T11:48:52.040Z,3.60
2022-09-02T11:51:56.253Z,3.75
2022-09-02T11:54:23.526Z,3.28
2022-09-02T11:56:52.156Z,5.97
2022-09-02T11:59:23.187Z,3.65
2022-09-02T12:01:54.227Z,3.53
2022-09-02T12:07:12.587Z,5.35
2022-09-02T12:09:49.320Z,3.90
2022-09-02T12:12:37.740Z,2.63
2022-09-02T12:15:04.325Z,5.00
2022-09-02T12:17:36.289Z,4.47
2022-09-02T12:20:03.521Z,4.85
2022-09-02T12:22:34.938Z,3.47
2022-09-02T12:25:01.996Z,3.15
2022-09-02T12:27:32.694Z,2.08
2022-09-02T12:29:59.644Z,9.20
2022-09-02T12:33:12.692Z,5.43
2022-09-02T12:35:40.226Z,2.28
2022-09-02T12:38:10.054Z,4.43
2022-09-02T12:40:41.439Z,6.43
2022-09-02T12:43:20.093Z,6.65
2022-09-02T12:45:47.092Z,6.07
2022-09-02T12:48:24.911Z,2.78
2022-09-02T12:51:05.786Z,2.60
2022-09-02T12:53:46.705Z,5.43
2022-09-02T12:58:45.192Z,6.10
2022-09-02T13:01:24.030Z,5.32
2022-09-02T13:04:18.194Z,4.05
2022-09-02T13:07:23.407Z,4.30
2022-09-02T13:10:02.524Z,4.00
2022-09-02T13:12:47.107Z,4.63
2022-09-02T13:16:03.687Z,3.63
2022-09-02T13:18:51.685Z,3.70
2022-09-02T13:21:21.123Z,8.23
2022-09-02T13:23:57.421Z,3.28
2022-09-02T13:26:45.844Z,1.80
2022-09-02T13:29:47.087Z,5.53
2022-09-02T13:32:19.132Z,6.30
2022-09-02T13:34:47.172Z,4.00
2022-09-02T13:37:29.026Z,4.38
2022-09-02T13:39:55.954Z,3.40
2022-09-02T13:42:24.333Z,2.65
2022-09-02T13:44:51.485Z,3.38
2022-09-02T13:47:18.620Z,2.83
2022-09-02T13:49:46.576Z,5.75
2022-09-02T13:52:21.766Z,2.45
2022-09-02T13:54:56.873Z,5.30
2022-09-02T13:57:27.649Z,3.63
2022-09-02T13:59:55.361Z,4.97
2022-09-02T14:02:28.419Z,5.20
2022-09-02T14:05:20.371Z,3.70
2022-09-02T14:07:48.428Z,4.38
2022-09-02T14:10:18.729Z,3.53
2022-09-02T14:12:45.511Z,2.25
2022-09-02T14:15:16.624Z,4.78
2022-09-02T14:17:44.788Z,3.28
2022-09-02T14:20:19.666Z,5.25
2022-09-02T14:22:53.865Z,4.63
2022-09-02T14:25:25.388Z,3.92
2022-09-02T14:27:57.900Z,4.13
2022-09-02T14:30:35.312Z,6.65
2022-09-02T14:33:28.007Z,5.85
2022-09-02T14:36:01.315Z,4.32
2022-09-02T14:38:31.025Z,2.05
2022-09-02T14:41:08.108Z,2.80
2022-09-02T14:43:49.670Z,3.50
2022-09-02T14:46:43.879Z,5.65
2022-09-02T14:49:45.157Z,3.70
2022-09-02T14:52:31.261Z,4.47
2022-09-02T14:54:57.988Z,7.32
2022-09-02T14:57:24.711Z,5.68
2022-09-02T14:59:52.808Z,4.55
2022-09-02T15:02:28.495Z,5.15
2022-09-02T15:04:55.656Z,5.63
2022-09-02T15:07:22.760Z,4.18
2022-09-02T15:09:52.782Z,4.20
2022-09-02T15:12:31.659Z,2.90
2022-09-02T15:14:58.489Z,3.05
2022-09-02T15:17:25.158Z,1.35
2022-09-02T15:19:51.914Z,3.95
2022-09-02T15:22:18.913Z,3.22
2022-09-02T15:24:45.674Z,2.15
2022-09-02T15:27:12.605Z,3.95
2022-09-02T15:29:39.498Z,4.65
2022-09-02T15:32:06.338Z,3.45
2022-09-02T15:34:33.163Z,6.78
2022-09-02T15:37:00.232Z,3.20
2022-09-02T15:39:27.075Z,4.43
2022-09-02T15:41:54.158Z,8.00
2022-09-02T15:44:24.069Z,5.90
2022-09-02T15:46:50.819Z,4.47
2022-09-02T15:49:17.487Z,2.30
2022-09-02T15:51:44.863Z,3.53
2022-09-02T15:54:16.387Z,2.92
2022-09-02T15:56:44.181Z,3.17
2022-09-02T15:59:12.885Z,5.25
2022-09-02T16:01:41.623Z,2.22
2022-09-02T16:04:08.413Z,4.68
2022-09-02T16:06:36.252Z,5.03
2022-09-02T16:09:03.141Z,4.85
2022-09-02T16:11:29.954Z,3.13
2022-09-02T16:13:56.580Z,2.83
2022-09-02T16:16:23.287Z,5.10
2022-09-02T16:18:51.292Z,4.20
2022-09-02T16:21:18.110Z,3.10
2022-09-02T16:23:44.763Z,2.20
2022-09-02T16:26:33.158Z,3.85
2022-09-02T16:29:04.922Z,2.90
2022-09-02T16:31:35.846Z,4.20
2022-09-02T16:34:03.515Z,7.03
2022-09-02T16:36:34.153Z,2.45
2022-09-02T16:39:01.777Z,8.55
2022-09-02T16:41:32.844Z,5.00
2022-09-02T16:43:59.781Z,6.32
2022-09-02T16:46:26.925Z,4.28
2022-09-02T16:48:53.773Z,4.45
2022-09-02T16:51:20.399Z,5.50
2022-09-02T16:53:47.140Z,2.88
2022-09-02T16:56:14.818Z,3.80
2022-09-02T16:58:44.446Z,5.13
2022-09-02T17:01:11.577Z,3.92
2022-09-02T17:03:38.804Z,3.53
2022-09-02T17:06:05.989Z,3.13
2022-09-02T17:08:32.743Z,3.63
2022-09-02T17:11:24.587Z,4.30
2022-09-02T17:14:01.922Z,3.72
2022-09-02T17:16:30.636Z,4.20
2022-09-02T17:18:57.809Z,10.25
2022-09-02T17:21:36.487Z,4.82
2022-09-02T17:24:04.355Z,2.22
2022-09-02T17:26:32.443Z,4.50
2022-09-02T17:28:59.195Z,4.72
2022-09-02T17:31:32.474Z,4.72
2022-09-02T17:34:00.659Z,5.88
2022-09-02T17:36:28.661Z,5.03
2022-09-02T17:38:56.697Z,4.93
2022-09-02T17:41:24.432Z,2.88
2022-09-02T17:43:51.070Z,5.72
2022-09-02T17:46:17.795Z,3.85
2022-09-02T17:49:05.692Z,6.90
2022-09-02T17:51:31.722Z,18.48
2022-09-02T17:53:58.453Z,9.50
2022-09-02T17:56:33.631Z,4.07
2022-09-02T17:59:22.956Z,4.50
2022-09-02T18:02:10.856Z,4.53
2022-09-02T18:05:03.035Z,8.05
2022-09-02T18:07:29.771Z,6.20
2022-09-02T18:09:56.394Z,6.47
2022-09-02T18:12:23.114Z,4.75
2022-09-02T18:14:52.426Z,6.10
2022-09-02T18:17:35.080Z,4.30
2022-09-02T18:20:13.744Z,5.57
2022-09-02T18:23:17.551Z,5.30
2022-09-02T18:25:50.130Z,7.43
2022-09-02T18:28:26.469Z,6.75
2022-09-02T18:31:11.873Z,7.00
2022-09-02T18:33:58.412Z,6.20
2022-09-02T18:36:57.975Z,6.65
2022-09-02T18:39:46.679Z,4.30
2022-09-02T18:42:27.399Z,6.07
2022-09-02T18:45:37.983Z,6.70
2022-09-02T18:48:15.701Z,6.18
2022-09-02T18:50:51.957Z,4.82
2022-09-02T18:53:21.753Z,7.03
2022-09-02T18:55:48.505Z,6.72
2022-09-02T18:58:21.124Z,8.25
2022-09-02T19:00:50.966Z,4.90
2022-09-02T19:03:17.855Z,8.98
2022-09-02T19:05:44.691Z,5.38
2022-09-02T19:08:17.051Z,4.88
2022-09-02T19:10:43.708Z,4.95
2022-09-02T19:13:10.411Z,7.30
2022-09-02T19:15:38.189Z,7.30
2022-09-02T19:18:05.153Z,7.53
2022-09-02T19:20:33.454Z,5.88
2022-09-02T19:23:03.249Z,4.60
2022-09-02T19:25:32.526Z,6.22
2022-09-02T19:30:25.900Z,5.18
2022-09-02T19:32:53.240Z,5.80
2022-09-02T19:35:24.164Z,5.38
2022-09-02T19:37:52.406Z,6.30
2022-09-02T19:40:29.510Z,5.47
2022-09-02T19:42:56.178Z,4.32
2022-09-02T19:45:23.370Z,5.70
2022-09-02T19:48:07.604Z,7.75
2022-09-02T19:50:40.554Z,4.95
2022-09-02T19:53:07.487Z,6.63
2022-09-02T19:55:34.333Z,9.45
2022-09-02T19:58:01.070Z,4.72
2022-09-02T20:00:27.925Z,4.65
2022-09-02T20:02:55.268Z,3.83
2022-09-02T20:05:22.010Z,4.65
2022-09-02T20:07:52.752Z,6.22
2022-09-02T20:10:20.295Z,7.80
2022-09-02T20:12:47.446Z,5.47
2022-09-02T20:15:15.872Z,7.47
2022-09-02T20:17:42.776Z,5.05
2022-09-02T20:20:17.811Z,2.78
2022-09-02T20:22:48.213Z,5.13
2022-09-02T20:25:15.078Z,5.53
2022-09-02T20:27:52.183Z,4.57
2022-09-02T20:30:19.119Z,4.93
2022-09-02T20:36:28.477Z,4.93
2022-09-02T20:45:36.561Z,5.57
2022-09-02T20:48:34.812Z,4.50
2022-09-02T20:51:13.669Z,3.78
2022-09-02T20:54:11.154Z,7.93
2022-09-02T20:56:43.630Z,3.97
2022-09-02T20:59:22.469Z,3.95
2022-09-02T21:01:49.214Z,6.50
2022-09-02T21:04:24.789Z,3.72
2022-09-02T21:09:35.504Z,3.47
2022-09-02T21:12:21.849Z,5.13
2022-09-02T21:14:54.516Z,3.38
2022-09-02T21:17:26.968Z,4.70
2022-09-02T21:19:58.647Z,4.50
2022-09-02T21:22:30.551Z,5.53
2022-09-02T21:25:08.329Z,5.22
2022-09-02T21:27:44.390Z,5.95
2022-09-02T21:30:13.338Z,15.15
2022-09-02T21:33:00.379Z,9.30
2022-09-02T21:35:40.644Z,8.02
2022-09-02T21:38:33.945Z,5.55
2022-09-02T21:41:07.457Z,9.40
2022-09-02T21:44:09.777Z,5.75
2022-09-02T21:47:03.254Z,6.00
2022-09-02T21:49:42.244Z,6.38
2022-09-02T21:52:16.783Z,4.50
2022-09-02T21:55:09.883Z,6.57
2022-09-02T21:58:01.256Z,5.25
2022-09-02T22:00:27.925Z,6.18
2022-09-02T22:03:11.626Z,6.65
2022-09-02T22:05:46.081Z,5.55
2022-09-02T22:08:24.939Z,3.85
2022-09-02T22:11:02.876Z,4.05
2022-09-02T22:13:30.351Z,4.53
2022-09-02T22:16:03.220Z,6.63
2022-09-02T22:18:47.700Z,4.35
2022-09-02T22:21:34.407Z,9.68
2022-09-02T22:24:02.984Z,5.35
2022-09-02T22:26:37.165Z,6.43
2022-09-02T22:29:06.482Z,7.95
2022-09-02T22:34:02.006Z,10.18
2022-09-02T22:36:36.971Z,5.68
2022-09-02T22:39:03.802Z,5.22
2022-09-02T22:41:59.042Z,5.57
2022-09-02T22:44:40.383Z,4.93
2022-09-02T22:47:07.744Z,5.10
2022-09-02T22:49:37.802Z,6.38
2022-09-02T22:52:09.208Z,5.63
2022-09-02T22:54:35.815Z,7.85
2022-09-02T22:57:35.842Z,4.75
2022-09-02T23:00:09.797Z,7.88
2022-09-02T23:02:53.075Z,5.40
2022-09-02T23:05:51.889Z,7.53
2022-09-02T23:08:19.940Z,7.32
2022-09-02T23:10:51.923Z,7.82
2022-09-02T23:13:50.437Z,5.05
2022-09-02T23:16:31.893Z,8.63
2022-09-02T23:19:28.147Z,5.68
2022-09-02T23:22:13.699Z,9.38
2022-09-02T23:24:49.256Z,9.57
2022-09-02T23:29:45.194Z,7.38
2022-09-02T23:32:39.675Z,7.78
2022-09-02T23:35:23.647Z,8.20
2022-09-02T23:38:02.482Z,7.88
2022-09-02T23:40:46.993Z,6.22
2022-09-02T23:43:14.154Z,9.05
2022-09-02T23:45:40.825Z,6.38
2022-09-02T23:48:10.605Z,4.25
2022-09-02T23:50:46.665Z,6.32
2022-09-02T23:53:27.667Z,6.75
2022-09-02T23:56:20.476Z,5.13
2022-09-02T23:59:02.140Z,7.68
